SWR89X ESSA-LSZH
Flight info
| Callsign | SWR89X |
|---|---|
| Flight time | 2h 31m |
| Altitude | 34000 |
| Route | NOSLI6C NOSLI N850 ABAMA DCT MAKEL DCT OTMON DCT SWALM DCT OMOGI T721 RILAX RILAX2A |
| Aircraft | A321/M-SDE3FGHIRWY/LB1 |
Departure
| Time | 2026-05-05 17:45 |
|---|---|
| Airport | Stockholm-Arlanda Airport (ESSA) |
Arrival
| Time | 2026-05-05 20:16 |
|---|---|
| Airport | Zürich Airport (LSZH) |
| Time | Latitude | Longitude | Altitude | Speed | Heading |
|---|---|---|---|---|---|
| 2026-05-05 17:06 | 59.65351 | 17.93794 | 89 ft | 0 kts | 256° |
| 2026-05-05 17:33 | 59.65352 | 17.93801 | 116 ft | 2 kts | 256° |
| 2026-05-05 17:33 | 59.65357 | 17.93837 | 113 ft | 3 kts | 252° |
| 2026-05-05 17:34 | 59.65363 | 17.93875 | 114 ft | 3 kts | 250° |
| 2026-05-05 17:34 | 59.65370 | 17.93913 | 115 ft | 3 kts | 257° |
| 2026-05-05 17:34 | 59.65372 | 17.93948 | 113 ft | 3 kts | 287° |
| 2026-05-05 17:34 | 59.65370 | 17.93965 | 114 ft | 1 kts | 342° |
| 2026-05-05 17:35 | 59.65368 | 17.93966 | 114 ft | 0 kts | 345° |
| 2026-05-05 17:37 | 59.65390 | 17.93955 | 113 ft | 7 kts | 346° |
| 2026-05-05 17:37 | 59.65489 | 17.93907 | 114 ft | 16 kts | 346° |
| 2026-05-05 17:38 | 59.65601 | 17.93850 | 117 ft | 18 kts | 346° |
| 2026-05-05 17:38 | 59.65668 | 17.93693 | 117 ft | 18 kts | 261° |
| 2026-05-05 17:38 | 59.65646 | 17.93533 | 114 ft | 18 kts | 255° |
| 2026-05-05 17:38 | 59.65607 | 17.93327 | 115 ft | 15 kts | 217° |
| 2026-05-05 17:39 | 59.65525 | 17.93239 | 116 ft | 14 kts | 246° |
| 2026-05-05 17:39 | 59.65499 | 17.93043 | 116 ft | 19 kts | 256° |
| 2026-05-05 17:39 | 59.65442 | 17.92746 | 115 ft | 25 kts | 242° |
| 2026-05-05 17:39 | 59.65323 | 17.92485 | 116 ft | 26 kts | 212° |
| 2026-05-05 17:40 | 59.65145 | 17.92362 | 118 ft | 28 kts | 190° |
| 2026-05-05 17:40 | 59.64949 | 17.92291 | 116 ft | 28 kts | 190° |
| 2026-05-05 17:40 | 59.64769 | 17.92225 | 114 ft | 26 kts | 190° |
| 2026-05-05 17:40 | 59.64615 | 17.92169 | 115 ft | 20 kts | 191° |
| 2026-05-05 17:41 | 59.64495 | 17.92127 | 114 ft | 18 kts | 190° |
| 2026-05-05 17:41 | 59.64367 | 17.92079 | 113 ft | 17 kts | 197° |
| 2026-05-05 17:41 | 59.64331 | 17.91957 | 113 ft | 11 kts | 258° |
| 2026-05-05 17:41 | 59.64253 | 17.91874 | 112 ft | 15 kts | 189° |
| 2026-05-05 17:42 | 59.64143 | 17.91837 | 112 ft | 17 kts | 189° |
| 2026-05-05 17:42 | 59.64023 | 17.91792 | 111 ft | 18 kts | 191° |
| 2026-05-05 17:42 | 59.63893 | 17.91744 | 110 ft | 19 kts | 190° |
| 2026-05-05 17:42 | 59.63807 | 17.91648 | 110 ft | 12 kts | 219° |
| 2026-05-05 17:43 | 59.63746 | 17.91543 | 109 ft | 10 kts | 224° |
| 2026-05-05 17:43 | 59.63728 | 17.91468 | 110 ft | 6 kts | 268° |
| 2026-05-05 17:43 | 59.63759 | 17.91374 | 111 ft | 9 kts | 323° |
| 2026-05-05 17:43 | 59.63814 | 17.91355 | 110 ft | 0 kts | 10° |
| 2026-05-05 17:44 | 59.63820 | 17.91358 | 110 ft | 6 kts | 11° |
| 2026-05-05 17:45 | 59.64064 | 17.91449 | 109 ft | 72 kts | 10° |
| 2026-05-05 17:45 | 59.64757 | 17.91699 | 116 ft | 128 kts | 11° |
| 2026-05-05 17:45 | 59.65786 | 17.92076 | 155 ft | 168 kts | 12° |
| 2026-05-05 17:45 | 59.66918 | 17.92511 | 902 ft | 162 kts | 9° |
| 2026-05-05 17:46 | 59.68011 | 17.92765 | 1634 ft | 156 kts | 345° |
| 2026-05-05 17:46 | 59.68951 | 17.91899 | 2009 ft | 142 kts | 314° |
| 2026-05-05 17:46 | 59.69459 | 17.90343 | 2117 ft | 141 kts | 286° |
| 2026-05-05 17:46 | 59.69514 | 17.88276 | 2394 ft | 163 kts | 264° |
| 2026-05-05 17:47 | 59.69352 | 17.85894 | 2657 ft | 185 kts | 264° |
| 2026-05-05 17:47 | 59.69173 | 17.83266 | 3018 ft | 197 kts | 264° |
| 2026-05-05 17:47 | 59.68988 | 17.80556 | 3610 ft | 200 kts | 263° |
| 2026-05-05 17:47 | 59.68785 | 17.77818 | 4366 ft | 202 kts | 258° |
| 2026-05-05 17:48 | 59.68364 | 17.75023 | 4817 ft | 224 kts | 254° |
| 2026-05-05 17:48 | 59.67870 | 17.71936 | 5268 ft | 245 kts | 254° |
| 2026-05-05 17:48 | 59.67322 | 17.68686 | 6047 ft | 253 kts | 248° |
| 2026-05-05 17:48 | 59.66310 | 17.65800 | 6866 ft | 261 kts | 225° |
| 2026-05-05 17:49 | 59.64819 | 17.63671 | 7727 ft | 267 kts | 217° |
| 2026-05-05 17:49 | 59.63267 | 17.61627 | 8597 ft | 270 kts | 217° |
| 2026-05-05 17:49 | 59.61698 | 17.59565 | 9495 ft | 272 kts | 217° |
| 2026-05-05 17:49 | 59.60104 | 17.57470 | 10137 ft | 283 kts | 217° |
| 2026-05-05 17:50 | 59.58399 | 17.55222 | 10375 ft | 306 kts | 217° |
| 2026-05-05 17:50 | 59.56588 | 17.52834 | 10596 ft | 328 kts | 217° |
| 2026-05-05 17:50 | 59.54662 | 17.50306 | 11165 ft | 336 kts | 217° |
| 2026-05-05 17:50 | 59.52701 | 17.47745 | 11942 ft | 339 kts | 218° |
| 2026-05-05 17:51 | 59.50719 | 17.45165 | 12756 ft | 341 kts | 218° |
| 2026-05-05 17:51 | 59.48731 | 17.42582 | 13567 ft | 344 kts | 218° |
| 2026-05-05 17:51 | 59.46746 | 17.40003 | 14281 ft | 345 kts | 219° |
| 2026-05-05 17:51 | 59.44737 | 17.37395 | 15047 ft | 344 kts | 219° |
| 2026-05-05 17:52 | 59.42753 | 17.34822 | 15811 ft | 343 kts | 220° |
| 2026-05-05 17:52 | 59.40756 | 17.32234 | 16596 ft | 342 kts | 220° |
| 2026-05-05 17:52 | 59.38767 | 17.29661 | 17348 ft | 341 kts | 220° |
| 2026-05-05 17:52 | 59.36803 | 17.27127 | 18061 ft | 341 kts | 221° |
| 2026-05-05 17:53 | 59.34812 | 17.24563 | 18667 ft | 342 kts | 221° |
| 2026-05-05 17:53 | 59.32815 | 17.21991 | 19197 ft | 344 kts | 221° |
| 2026-05-05 17:53 | 59.30812 | 17.19409 | 19711 ft | 347 kts | 221° |
| 2026-05-05 17:53 | 59.28786 | 17.16800 | 20207 ft | 350 kts | 221° |
| 2026-05-05 17:54 | 59.26746 | 17.14177 | 20701 ft | 353 kts | 221° |
| 2026-05-05 17:54 | 59.24685 | 17.11528 | 21182 ft | 356 kts | 221° |
| 2026-05-05 17:54 | 59.22613 | 17.08868 | 21665 ft | 359 kts | 220° |
| 2026-05-05 17:54 | 59.20515 | 17.06181 | 22156 ft | 362 kts | 220° |
| 2026-05-05 17:55 | 59.18432 | 17.03516 | 22625 ft | 365 kts | 220° |
| 2026-05-05 17:55 | 59.16272 | 17.00759 | 23110 ft | 368 kts | 220° |
| 2026-05-05 17:55 | 59.14148 | 16.98054 | 23552 ft | 371 kts | 220° |
| 2026-05-05 17:55 | 59.11974 | 16.95295 | 23947 ft | 373 kts | 220° |
| 2026-05-05 17:56 | 59.09779 | 16.92514 | 24341 ft | 376 kts | 220° |
| 2026-05-05 17:56 | 59.07574 | 16.89726 | 24731 ft | 378 kts | 220° |
| 2026-05-05 17:56 | 59.05383 | 16.86956 | 25114 ft | 380 kts | 220° |
| 2026-05-05 17:56 | 59.03147 | 16.84133 | 25494 ft | 382 kts | 220° |
| 2026-05-05 17:57 | 59.00927 | 16.81335 | 25867 ft | 385 kts | 220° |
| 2026-05-05 17:57 | 58.98669 | 16.78495 | 26248 ft | 387 kts | 220° |
| 2026-05-05 17:57 | 58.96398 | 16.75643 | 26625 ft | 389 kts | 220° |
| 2026-05-05 17:57 | 58.94109 | 16.72770 | 26991 ft | 391 kts | 220° |
| 2026-05-05 17:58 | 58.91844 | 16.69928 | 27331 ft | 393 kts | 220° |
| 2026-05-05 17:58 | 58.89528 | 16.67030 | 27698 ft | 395 kts | 219° |
| 2026-05-05 17:58 | 58.87197 | 16.64123 | 28045 ft | 398 kts | 219° |
| 2026-05-05 17:58 | 58.84884 | 16.61241 | 28388 ft | 400 kts | 219° |
| 2026-05-05 17:59 | 58.82523 | 16.58306 | 28717 ft | 402 kts | 219° |
| 2026-05-05 17:59 | 58.80149 | 16.55361 | 29046 ft | 404 kts | 219° |
| 2026-05-05 17:59 | 58.77803 | 16.52458 | 29427 ft | 405 kts | 219° |
| 2026-05-05 17:59 | 58.75436 | 16.49537 | 29882 ft | 403 kts | 219° |
| 2026-05-05 18:00 | 58.73071 | 16.46611 | 30283 ft | 402 kts | 219° |
| 2026-05-05 18:00 | 58.70736 | 16.43719 | 30662 ft | 401 kts | 219° |
| 2026-05-05 18:00 | 58.68370 | 16.40799 | 31034 ft | 401 kts | 219° |
| 2026-05-05 18:00 | 58.66039 | 16.37927 | 31404 ft | 400 kts | 219° |
| 2026-05-05 18:01 | 58.63681 | 16.35032 | 31767 ft | 400 kts | 219° |
| 2026-05-05 18:01 | 58.61350 | 16.32176 | 32142 ft | 399 kts | 219° |
| 2026-05-05 18:01 | 58.59005 | 16.29304 | 32503 ft | 399 kts | 219° |
| 2026-05-05 18:01 | 58.56664 | 16.26443 | 32870 ft | 398 kts | 219° |
| 2026-05-05 18:02 | 58.54324 | 16.23589 | 33242 ft | 398 kts | 219° |
| 2026-05-05 18:02 | 58.51987 | 16.20742 | 33609 ft | 397 kts | 219° |
| 2026-05-05 18:02 | 58.49651 | 16.17901 | 33879 ft | 398 kts | 219° |
| 2026-05-05 18:03 | 58.45019 | 16.12284 | 33917 ft | 392 kts | 219° |
| 2026-05-05 18:03 | 58.40415 | 16.06721 | 33907 ft | 392 kts | 218° |
| 2026-05-05 18:04 | 58.35843 | 16.01201 | 33919 ft | 392 kts | 218° |
| 2026-05-05 18:04 | 58.31235 | 15.95659 | 33911 ft | 392 kts | 218° |
| 2026-05-05 18:05 | 58.26604 | 15.90114 | 33906 ft | 393 kts | 218° |
| 2026-05-05 18:05 | 58.21971 | 15.84578 | 33901 ft | 393 kts | 218° |
| 2026-05-05 18:06 | 58.17346 | 15.79057 | 33897 ft | 393 kts | 218° |
| 2026-05-05 18:06 | 58.12712 | 15.73556 | 33891 ft | 393 kts | 218° |
| 2026-05-05 18:07 | 58.08066 | 15.68053 | 33884 ft | 393 kts | 218° |
| 2026-05-05 18:07 | 58.03420 | 15.62577 | 33886 ft | 394 kts | 218° |
| 2026-05-05 18:08 | 57.98767 | 15.57116 | 33884 ft | 394 kts | 218° |
| 2026-05-05 18:08 | 57.94153 | 15.51664 | 33884 ft | 394 kts | 218° |
| 2026-05-05 18:09 | 57.89524 | 15.46155 | 33880 ft | 394 kts | 218° |
| 2026-05-05 18:09 | 57.84875 | 15.40664 | 33878 ft | 395 kts | 218° |
| 2026-05-05 18:10 | 57.80224 | 15.35198 | 33881 ft | 395 kts | 218° |
| 2026-05-05 18:10 | 57.75563 | 15.29733 | 33880 ft | 395 kts | 218° |
| 2026-05-05 18:11 | 57.70903 | 15.24280 | 33884 ft | 395 kts | 218° |
| 2026-05-05 18:11 | 57.66256 | 15.18860 | 33890 ft | 396 kts | 218° |
| 2026-05-05 18:12 | 57.61572 | 15.13410 | 33887 ft | 396 kts | 218° |
| 2026-05-05 18:12 | 57.56878 | 15.07960 | 33889 ft | 397 kts | 218° |
| 2026-05-05 18:13 | 57.52177 | 15.02536 | 33884 ft | 398 kts | 218° |
| 2026-05-05 18:13 | 57.47461 | 14.97123 | 33886 ft | 398 kts | 217° |
| 2026-05-05 18:14 | 57.42744 | 14.91711 | 33884 ft | 399 kts | 217° |
| 2026-05-05 18:14 | 57.38025 | 14.86282 | 33887 ft | 399 kts | 217° |
| 2026-05-05 18:15 | 57.33307 | 14.80893 | 33884 ft | 400 kts | 217° |
| 2026-05-05 18:15 | 57.28566 | 14.75522 | 33884 ft | 400 kts | 217° |
| 2026-05-05 18:16 | 57.23809 | 14.70138 | 33881 ft | 401 kts | 217° |
| 2026-05-05 18:16 | 57.19060 | 14.64751 | 33875 ft | 401 kts | 217° |
| 2026-05-05 18:17 | 57.14330 | 14.59416 | 33876 ft | 401 kts | 217° |
| 2026-05-05 18:17 | 57.09559 | 14.54071 | 33876 ft | 402 kts | 217° |
| 2026-05-05 18:18 | 57.04786 | 14.48732 | 33872 ft | 402 kts | 217° |
| 2026-05-05 18:18 | 57.00003 | 14.43391 | 33876 ft | 402 kts | 217° |
| 2026-05-05 18:19 | 56.95213 | 14.38059 | 33877 ft | 403 kts | 217° |
| 2026-05-05 18:19 | 56.90419 | 14.32736 | 33883 ft | 403 kts | 216° |
| 2026-05-05 18:20 | 56.85616 | 14.27402 | 33884 ft | 403 kts | 216° |
| 2026-05-05 18:20 | 56.80810 | 14.22094 | 33888 ft | 404 kts | 216° |
| 2026-05-05 18:21 | 56.75999 | 14.16816 | 33895 ft | 404 kts | 216° |
| 2026-05-05 18:21 | 56.71179 | 14.11539 | 33894 ft | 405 kts | 216° |
| 2026-05-05 18:22 | 56.66380 | 14.06294 | 33892 ft | 405 kts | 216° |
| 2026-05-05 18:22 | 56.61543 | 14.01023 | 33899 ft | 406 kts | 216° |
| 2026-05-05 18:23 | 56.56700 | 13.95758 | 33900 ft | 406 kts | 216° |
| 2026-05-05 18:23 | 56.51856 | 13.90504 | 33901 ft | 406 kts | 216° |
| 2026-05-05 18:24 | 56.46995 | 13.85259 | 33901 ft | 407 kts | 216° |
| 2026-05-05 18:24 | 56.42128 | 13.80020 | 33910 ft | 407 kts | 216° |
| 2026-05-05 18:25 | 56.37259 | 13.74791 | 33907 ft | 407 kts | 215° |
| 2026-05-05 18:25 | 56.32380 | 13.69564 | 33906 ft | 408 kts | 215° |
| 2026-05-05 18:26 | 56.28322 | 13.65225 | 33911 ft | 408 kts | 215° |
| 2026-05-05 18:26 | 56.23437 | 13.60019 | 33913 ft | 408 kts | 215° |
| 2026-05-05 18:27 | 56.17737 | 13.53987 | 33913 ft | 409 kts | 215° |
| 2026-05-05 18:27 | 56.13632 | 13.49643 | 33921 ft | 409 kts | 215° |
| 2026-05-05 18:28 | 56.06294 | 13.41901 | 33918 ft | 410 kts | 214° |
| 2026-05-05 18:28 | 56.01377 | 13.36733 | 33921 ft | 410 kts | 214° |
| 2026-05-05 18:29 | 55.96457 | 13.31583 | 33921 ft | 410 kts | 214° |
| 2026-05-05 18:29 | 55.91522 | 13.26437 | 33921 ft | 410 kts | 214° |
| 2026-05-05 18:30 | 55.86596 | 13.21311 | 33916 ft | 411 kts | 214° |
| 2026-05-05 18:30 | 55.81653 | 13.16174 | 33917 ft | 411 kts | 214° |
| 2026-05-05 18:31 | 55.76705 | 13.11053 | 33909 ft | 412 kts | 214° |
| 2026-05-05 18:31 | 55.71749 | 13.05943 | 33919 ft | 412 kts | 214° |
| 2026-05-05 18:32 | 55.66786 | 13.00841 | 33922 ft | 412 kts | 214° |
| 2026-05-05 18:32 | 55.61831 | 12.95760 | 33925 ft | 412 kts | 213° |
| 2026-05-05 18:33 | 55.56906 | 12.90728 | 33929 ft | 412 kts | 214° |
| 2026-05-05 18:33 | 55.51943 | 12.85670 | 33928 ft | 411 kts | 214° |
| 2026-05-05 18:34 | 55.46986 | 12.80627 | 33936 ft | 411 kts | 214° |
| 2026-05-05 18:34 | 55.42034 | 12.75596 | 33937 ft | 411 kts | 214° |
| 2026-05-05 18:35 | 55.37082 | 12.70590 | 33936 ft | 410 kts | 214° |
| 2026-05-05 18:35 | 55.32137 | 12.65608 | 33935 ft | 409 kts | 214° |
| 2026-05-05 18:36 | 55.27194 | 12.60638 | 33931 ft | 409 kts | 214° |
| 2026-05-05 18:36 | 55.22267 | 12.55696 | 33930 ft | 408 kts | 214° |
| 2026-05-05 18:37 | 55.17336 | 12.50776 | 33936 ft | 407 kts | 214° |
| 2026-05-05 18:37 | 55.12413 | 12.45886 | 33939 ft | 406 kts | 214° |
| 2026-05-05 18:38 | 55.07536 | 12.41034 | 33940 ft | 406 kts | 214° |
| 2026-05-05 18:38 | 55.02630 | 12.36172 | 33941 ft | 405 kts | 214° |
| 2026-05-05 18:39 | 54.97735 | 12.31340 | 33937 ft | 404 kts | 214° |
| 2026-05-05 18:39 | 54.92849 | 12.26523 | 33934 ft | 403 kts | 215° |
| 2026-05-05 18:40 | 54.87967 | 12.21733 | 33937 ft | 402 kts | 215° |
| 2026-05-05 18:40 | 54.83093 | 12.16966 | 33936 ft | 402 kts | 215° |
| 2026-05-05 18:41 | 54.78231 | 12.12209 | 33930 ft | 401 kts | 215° |
| 2026-05-05 18:41 | 54.73380 | 12.07475 | 33932 ft | 400 kts | 214° |
| 2026-05-05 18:42 | 54.68528 | 12.02775 | 33935 ft | 399 kts | 214° |
| 2026-05-05 18:42 | 54.63691 | 11.98097 | 33933 ft | 398 kts | 214° |
| 2026-05-05 18:43 | 54.58861 | 11.93426 | 33933 ft | 397 kts | 214° |
| 2026-05-05 18:43 | 54.54048 | 11.88778 | 33933 ft | 396 kts | 214° |
| 2026-05-05 18:44 | 54.49271 | 11.84192 | 33933 ft | 395 kts | 214° |
| 2026-05-05 18:44 | 54.44464 | 11.79610 | 33927 ft | 395 kts | 213° |
| 2026-05-05 18:45 | 54.39559 | 11.75341 | 33930 ft | 396 kts | 211° |
| 2026-05-05 18:45 | 54.34591 | 11.71281 | 33926 ft | 395 kts | 211° |
| 2026-05-05 18:46 | 54.29643 | 11.67214 | 33928 ft | 394 kts | 211° |
| 2026-05-05 18:46 | 54.24730 | 11.63104 | 33926 ft | 393 kts | 211° |
| 2026-05-05 18:47 | 54.19825 | 11.59000 | 33923 ft | 392 kts | 211° |
| 2026-05-05 18:47 | 54.14923 | 11.54917 | 33920 ft | 392 kts | 211° |
| 2026-05-05 18:48 | 54.10029 | 11.50847 | 33921 ft | 391 kts | 211° |
| 2026-05-05 18:48 | 54.05138 | 11.46798 | 33921 ft | 391 kts | 211° |
| 2026-05-05 18:49 | 54.00251 | 11.42774 | 33915 ft | 390 kts | 211° |
| 2026-05-05 18:49 | 53.95372 | 11.38752 | 33914 ft | 390 kts | 211° |
| 2026-05-05 18:50 | 53.90519 | 11.34769 | 33911 ft | 390 kts | 210° |
| 2026-05-05 18:50 | 53.85639 | 11.30780 | 33902 ft | 390 kts | 210° |
| 2026-05-05 18:51 | 53.80757 | 11.26793 | 33912 ft | 389 kts | 210° |
| 2026-05-05 18:51 | 53.75860 | 11.22806 | 33917 ft | 389 kts | 210° |
| 2026-05-05 18:52 | 53.70975 | 11.18838 | 33896 ft | 390 kts | 210° |
| 2026-05-05 18:52 | 53.66088 | 11.14875 | 33899 ft | 390 kts | 210° |
| 2026-05-05 18:53 | 53.61194 | 11.10924 | 33883 ft | 390 kts | 209° |
| 2026-05-05 18:53 | 53.56288 | 11.06984 | 33885 ft | 390 kts | 209° |
| 2026-05-05 18:54 | 53.51415 | 11.03068 | 33884 ft | 391 kts | 209° |
| 2026-05-05 18:54 | 53.46503 | 10.99129 | 33880 ft | 391 kts | 209° |
| 2026-05-05 18:55 | 53.41589 | 10.95195 | 33877 ft | 392 kts | 208° |
| 2026-05-05 18:55 | 53.36665 | 10.91263 | 33885 ft | 392 kts | 208° |
| 2026-05-05 18:56 | 53.31731 | 10.87334 | 33876 ft | 393 kts | 208° |
| 2026-05-05 18:56 | 53.26785 | 10.83415 | 33867 ft | 394 kts | 208° |
| 2026-05-05 18:57 | 53.21831 | 10.79495 | 33874 ft | 394 kts | 208° |
| 2026-05-05 18:57 | 53.16868 | 10.75573 | 33876 ft | 395 kts | 207° |
| 2026-05-05 18:58 | 53.11898 | 10.71662 | 33877 ft | 395 kts | 207° |
| 2026-05-05 18:58 | 53.06923 | 10.67754 | 33879 ft | 396 kts | 207° |
| 2026-05-05 18:59 | 53.01940 | 10.63856 | 33873 ft | 396 kts | 207° |
| 2026-05-05 18:59 | 52.96950 | 10.59957 | 33870 ft | 396 kts | 207° |
| 2026-05-05 19:00 | 52.91961 | 10.56057 | 33870 ft | 397 kts | 207° |
| 2026-05-05 19:00 | 52.86967 | 10.52170 | 33872 ft | 397 kts | 206° |
| 2026-05-05 19:01 | 52.81990 | 10.48326 | 33870 ft | 397 kts | 206° |
| 2026-05-05 19:01 | 52.76977 | 10.44452 | 33870 ft | 398 kts | 206° |
| 2026-05-05 19:02 | 52.71965 | 10.40587 | 33864 ft | 398 kts | 206° |
| 2026-05-05 19:02 | 52.66923 | 10.36710 | 33849 ft | 398 kts | 205° |
| 2026-05-05 19:03 | 52.61650 | 10.33870 | 33852 ft | 400 kts | 198° |
| 2026-05-05 19:03 | 52.56307 | 10.31259 | 33847 ft | 401 kts | 198° |
| 2026-05-05 19:04 | 52.50953 | 10.28663 | 33843 ft | 401 kts | 198° |
| 2026-05-05 19:04 | 52.45593 | 10.26077 | 33841 ft | 402 kts | 198° |
| 2026-05-05 19:05 | 52.40266 | 10.23499 | 33841 ft | 402 kts | 198° |
| 2026-05-05 19:05 | 52.34897 | 10.20903 | 33839 ft | 402 kts | 198° |
| 2026-05-05 19:06 | 52.29511 | 10.18316 | 33839 ft | 403 kts | 197° |
| 2026-05-05 19:06 | 52.24127 | 10.15739 | 33834 ft | 403 kts | 197° |
| 2026-05-05 19:07 | 52.19654 | 10.13599 | 33834 ft | 403 kts | 197° |
| 2026-05-05 19:07 | 52.13352 | 10.10581 | 33826 ft | 403 kts | 197° |
| 2026-05-05 19:08 | 52.07967 | 10.08020 | 33829 ft | 403 kts | 197° |
| 2026-05-05 19:08 | 52.02611 | 10.05483 | 33825 ft | 403 kts | 197° |
| 2026-05-05 19:09 | 51.97224 | 10.02933 | 33823 ft | 403 kts | 197° |
| 2026-05-05 19:09 | 51.91845 | 10.00383 | 33823 ft | 403 kts | 196° |
| 2026-05-05 19:10 | 51.86458 | 9.97854 | 33817 ft | 403 kts | 196° |
| 2026-05-05 19:10 | 51.81076 | 9.95328 | 33809 ft | 403 kts | 196° |
| 2026-05-05 19:11 | 51.75697 | 9.92805 | 33811 ft | 403 kts | 195° |
| 2026-05-05 19:11 | 51.70315 | 9.90296 | 33805 ft | 402 kts | 195° |
| 2026-05-05 19:12 | 51.64937 | 9.87787 | 33801 ft | 402 kts | 195° |
| 2026-05-05 19:12 | 51.59557 | 9.85279 | 33801 ft | 403 kts | 195° |
| 2026-05-05 19:13 | 51.54186 | 9.82788 | 33795 ft | 403 kts | 195° |
| 2026-05-05 19:13 | 51.48798 | 9.80300 | 33796 ft | 403 kts | 195° |
| 2026-05-05 19:14 | 51.43410 | 9.77803 | 33792 ft | 403 kts | 195° |
| 2026-05-05 19:14 | 51.38018 | 9.75316 | 33792 ft | 404 kts | 194° |
| 2026-05-05 19:15 | 51.32613 | 9.72834 | 33785 ft | 404 kts | 194° |
| 2026-05-05 19:15 | 51.27194 | 9.70353 | 33784 ft | 405 kts | 194° |
| 2026-05-05 19:16 | 51.21790 | 9.67891 | 33782 ft | 406 kts | 194° |
| 2026-05-05 19:16 | 51.17266 | 9.65829 | 33783 ft | 406 kts | 194° |
| 2026-05-05 19:17 | 51.11811 | 9.63335 | 33781 ft | 407 kts | 194° |
| 2026-05-05 19:17 | 51.06362 | 9.60859 | 33781 ft | 408 kts | 194° |
| 2026-05-05 19:18 | 51.00896 | 9.58386 | 33783 ft | 409 kts | 193° |
| 2026-05-05 19:18 | 50.95410 | 9.55902 | 33780 ft | 410 kts | 193° |
| 2026-05-05 19:19 | 50.89903 | 9.53425 | 33782 ft | 411 kts | 193° |
| 2026-05-05 19:19 | 50.84395 | 9.50953 | 33785 ft | 412 kts | 193° |
| 2026-05-05 19:20 | 50.78874 | 9.48469 | 33788 ft | 413 kts | 193° |
| 2026-05-05 19:20 | 50.73347 | 9.45986 | 33786 ft | 413 kts | 193° |
| 2026-05-05 19:21 | 50.67812 | 9.43507 | 33792 ft | 414 kts | 193° |
| 2026-05-05 19:21 | 50.62305 | 9.41049 | 33794 ft | 414 kts | 193° |
| 2026-05-05 19:22 | 50.56761 | 9.38592 | 33799 ft | 414 kts | 193° |
| 2026-05-05 19:22 | 50.51195 | 9.36125 | 33804 ft | 415 kts | 193° |
| 2026-05-05 19:23 | 50.45637 | 9.33670 | 33807 ft | 415 kts | 193° |
| 2026-05-05 19:23 | 50.40080 | 9.31220 | 33806 ft | 415 kts | 193° |
| 2026-05-05 19:24 | 50.34545 | 9.28780 | 33811 ft | 415 kts | 193° |
| 2026-05-05 19:24 | 50.28955 | 9.26327 | 33594 ft | 418 kts | 193° |
| 2026-05-05 19:25 | 50.26153 | 9.25103 | 33327 ft | 419 kts | 192° |
| 2026-05-05 19:25 | 50.23338 | 9.23878 | 33056 ft | 421 kts | 192° |
| 2026-05-05 19:25 | 50.20510 | 9.22646 | 32821 ft | 422 kts | 192° |
| 2026-05-05 19:25 | 50.17680 | 9.21412 | 32828 ft | 423 kts | 193° |
| 2026-05-05 19:26 | 50.11993 | 9.18936 | 32828 ft | 425 kts | 193° |
| 2026-05-05 19:26 | 50.06293 | 9.16454 | 32829 ft | 426 kts | 193° |
| 2026-05-05 19:27 | 50.00587 | 9.13974 | 32830 ft | 426 kts | 193° |
| 2026-05-05 19:27 | 49.94896 | 9.11501 | 32835 ft | 427 kts | 193° |
| 2026-05-05 19:28 | 49.89140 | 9.09021 | 32831 ft | 428 kts | 193° |
| 2026-05-05 19:28 | 49.83399 | 9.06551 | 32835 ft | 428 kts | 193° |
| 2026-05-05 19:29 | 49.77668 | 9.04094 | 32834 ft | 429 kts | 193° |
| 2026-05-05 19:29 | 49.71918 | 9.01630 | 32839 ft | 429 kts | 193° |
| 2026-05-05 19:30 | 49.66169 | 8.99180 | 32833 ft | 429 kts | 192° |
| 2026-05-05 19:30 | 49.60318 | 8.97487 | 32836 ft | 428 kts | 188° |
| 2026-05-05 19:31 | 49.54452 | 8.95869 | 32838 ft | 428 kts | 188° |
| 2026-05-05 19:31 | 49.48575 | 8.94254 | 32835 ft | 429 kts | 188° |
| 2026-05-05 19:32 | 49.42696 | 8.92655 | 32834 ft | 428 kts | 188° |
| 2026-05-05 19:32 | 49.36858 | 8.91056 | 32836 ft | 428 kts | 188° |
| 2026-05-05 19:33 | 49.30978 | 8.89445 | 32835 ft | 428 kts | 189° |
| 2026-05-05 19:33 | 49.25101 | 8.87843 | 32836 ft | 428 kts | 189° |
| 2026-05-05 19:34 | 49.19237 | 8.86260 | 32836 ft | 428 kts | 189° |
| 2026-05-05 19:35 | 49.10443 | 8.83860 | 32836 ft | 428 kts | 189° |
| 2026-05-05 19:35 | 49.04575 | 8.82256 | 32835 ft | 427 kts | 189° |
| 2026-05-05 19:35 | 49.01675 | 8.81466 | 32406 ft | 429 kts | 189° |
| 2026-05-05 19:36 | 48.98724 | 8.80667 | 31880 ft | 428 kts | 189° |
| 2026-05-05 19:36 | 48.95782 | 8.79876 | 31367 ft | 429 kts | 189° |
| 2026-05-05 19:36 | 48.92835 | 8.79080 | 30866 ft | 430 kts | 189° |
| 2026-05-05 19:36 | 48.89881 | 8.78282 | 30367 ft | 432 kts | 189° |
| 2026-05-05 19:37 | 48.86922 | 8.77483 | 29874 ft | 433 kts | 189° |
| 2026-05-05 19:37 | 48.83951 | 8.76684 | 29303 ft | 433 kts | 189° |
| 2026-05-05 19:37 | 48.81014 | 8.75899 | 28727 ft | 422 kts | 189° |
| 2026-05-05 19:37 | 48.78171 | 8.75140 | 28178 ft | 409 kts | 190° |
| 2026-05-05 19:38 | 48.75405 | 8.74399 | 27636 ft | 402 kts | 190° |
| 2026-05-05 19:38 | 48.72677 | 8.73667 | 27121 ft | 398 kts | 190° |
| 2026-05-05 19:38 | 48.69950 | 8.72935 | 26587 ft | 395 kts | 190° |
| 2026-05-05 19:38 | 48.67252 | 8.72214 | 26082 ft | 393 kts | 190° |
| 2026-05-05 19:39 | 48.64572 | 8.71503 | 25575 ft | 390 kts | 189° |
| 2026-05-05 19:39 | 48.61917 | 8.70801 | 25089 ft | 386 kts | 189° |
| 2026-05-05 19:39 | 48.59291 | 8.70106 | 24609 ft | 383 kts | 189° |
| 2026-05-05 19:39 | 48.56674 | 8.69412 | 24133 ft | 381 kts | 189° |
| 2026-05-05 19:40 | 48.54075 | 8.68722 | 23664 ft | 378 kts | 189° |
| 2026-05-05 19:40 | 48.51484 | 8.68036 | 23156 ft | 375 kts | 189° |
| 2026-05-05 19:40 | 48.48924 | 8.67356 | 22853 ft | 373 kts | 189° |
| 2026-05-05 19:40 | 48.46370 | 8.66678 | 22855 ft | 373 kts | 189° |
| 2026-05-05 19:41 | 48.43810 | 8.65997 | 22860 ft | 373 kts | 189° |
| 2026-05-05 19:41 | 48.41249 | 8.65318 | 22860 ft | 373 kts | 189° |
| 2026-05-05 19:41 | 48.38693 | 8.64643 | 22863 ft | 373 kts | 189° |
| 2026-05-05 19:41 | 48.36131 | 8.63943 | 22860 ft | 373 kts | 190° |
| 2026-05-05 19:42 | 48.33583 | 8.63191 | 22741 ft | 374 kts | 191° |
| 2026-05-05 19:42 | 48.31063 | 8.62419 | 22337 ft | 371 kts | 191° |
| 2026-05-05 19:42 | 48.28536 | 8.61637 | 21932 ft | 369 kts | 192° |
| 2026-05-05 19:42 | 48.26026 | 8.60856 | 21534 ft | 366 kts | 192° |
| 2026-05-05 19:43 | 48.23555 | 8.60092 | 21149 ft | 364 kts | 192° |
| 2026-05-05 19:43 | 48.21062 | 8.59332 | 20762 ft | 362 kts | 192° |
| 2026-05-05 19:43 | 48.18599 | 8.58586 | 20377 ft | 360 kts | 192° |
| 2026-05-05 19:43 | 48.16148 | 8.57848 | 20003 ft | 358 kts | 192° |
| 2026-05-05 19:44 | 48.13718 | 8.57126 | 19634 ft | 356 kts | 192° |
| 2026-05-05 19:44 | 48.11295 | 8.56411 | 19268 ft | 354 kts | 192° |
| 2026-05-05 19:44 | 48.08886 | 8.55704 | 18902 ft | 352 kts | 192° |
| 2026-05-05 19:44 | 48.06485 | 8.54999 | 18546 ft | 350 kts | 193° |
| 2026-05-05 19:45 | 48.04107 | 8.54296 | 18192 ft | 348 kts | 193° |
| 2026-05-05 19:45 | 48.01761 | 8.53599 | 17795 ft | 346 kts | 193° |
| 2026-05-05 19:45 | 47.99387 | 8.52948 | 17389 ft | 345 kts | 189° |
| 2026-05-05 19:45 | 47.96979 | 8.52838 | 16991 ft | 345 kts | 179° |
| 2026-05-05 19:46 | 47.94617 | 8.53383 | 16597 ft | 346 kts | 168° |
| 2026-05-05 19:46 | 47.92333 | 8.54572 | 16212 ft | 349 kts | 158° |
| 2026-05-05 19:46 | 47.90231 | 8.56378 | 15909 ft | 351 kts | 147° |
| 2026-05-05 19:46 | 47.88342 | 8.58654 | 15882 ft | 352 kts | 143° |
| 2026-05-05 19:47 | 47.86442 | 8.60985 | 15888 ft | 353 kts | 144° |
| 2026-05-05 19:47 | 47.84543 | 8.63286 | 15888 ft | 353 kts | 144° |
| 2026-05-05 19:47 | 47.82634 | 8.65582 | 15891 ft | 353 kts | 144° |
| 2026-05-05 19:47 | 47.80727 | 8.67879 | 15889 ft | 353 kts | 144° |
| 2026-05-05 19:48 | 47.78816 | 8.70185 | 15895 ft | 353 kts | 144° |
| 2026-05-05 19:48 | 47.76911 | 8.72486 | 15894 ft | 353 kts | 144° |
| 2026-05-05 19:48 | 47.75001 | 8.74796 | 15897 ft | 353 kts | 144° |
| 2026-05-05 19:48 | 47.73109 | 8.77083 | 15897 ft | 353 kts | 144° |
| 2026-05-05 19:49 | 47.71191 | 8.79399 | 15897 ft | 354 kts | 144° |
| 2026-05-05 19:49 | 47.69924 | 8.80926 | 15905 ft | 354 kts | 144° |
| 2026-05-05 19:49 | 47.67377 | 8.83993 | 15904 ft | 354 kts | 144° |
| 2026-05-05 19:49 | 47.65454 | 8.86308 | 15904 ft | 354 kts | 144° |
| 2026-05-05 19:50 | 47.63560 | 8.88591 | 15891 ft | 354 kts | 143° |
| 2026-05-05 19:50 | 47.61857 | 8.91264 | 15892 ft | 359 kts | 128° |
| 2026-05-05 19:50 | 47.60612 | 8.94506 | 15892 ft | 362 kts | 120° |
| 2026-05-05 19:50 | 47.59456 | 8.97839 | 15893 ft | 362 kts | 120° |
| 2026-05-05 19:51 | 47.58300 | 9.01152 | 15895 ft | 362 kts | 120° |
| 2026-05-05 19:51 | 47.57347 | 9.04551 | 15892 ft | 366 kts | 105° |
| 2026-05-05 19:51 | 47.57061 | 9.08303 | 15896 ft | 368 kts | 96° |
| 2026-05-05 19:51 | 47.56797 | 9.12088 | 15895 ft | 368 kts | 99° |
| 2026-05-05 19:52 | 47.56426 | 9.15849 | 15896 ft | 367 kts | 101° |
| 2026-05-05 19:52 | 47.56012 | 9.19587 | 15896 ft | 367 kts | 102° |
| 2026-05-05 19:52 | 47.55760 | 9.23347 | 15893 ft | 369 kts | 89° |
| 2026-05-05 19:52 | 47.56285 | 9.27012 | 15892 ft | 371 kts | 67° |
| 2026-05-05 19:53 | 47.57685 | 9.30217 | 15893 ft | 371 kts | 45° |
| 2026-05-05 19:53 | 47.59751 | 9.32466 | 15893 ft | 368 kts | 24° |
| 2026-05-05 19:53 | 47.62165 | 9.33546 | 15893 ft | 364 kts | 4° |
| 2026-05-05 19:53 | 47.64679 | 9.33416 | 15893 ft | 359 kts | 345° |
| 2026-05-05 19:54 | 47.66990 | 9.32111 | 15895 ft | 353 kts | 326° |
| 2026-05-05 19:54 | 47.68858 | 9.29824 | 15893 ft | 347 kts | 307° |
| 2026-05-05 19:54 | 47.70109 | 9.26848 | 15893 ft | 342 kts | 289° |
| 2026-05-05 19:54 | 47.70676 | 9.23430 | 15892 ft | 337 kts | 272° |
| 2026-05-05 19:55 | 47.70509 | 9.19975 | 15893 ft | 334 kts | 255° |
| 2026-05-05 19:55 | 47.69669 | 9.16823 | 15682 ft | 332 kts | 238° |
| 2026-05-05 19:55 | 47.68210 | 9.14203 | 15437 ft | 331 kts | 221° |
| 2026-05-05 19:55 | 47.66307 | 9.12229 | 15183 ft | 331 kts | 213° |
| 2026-05-05 19:56 | 47.64306 | 9.10532 | 14933 ft | 331 kts | 210° |
| 2026-05-05 19:56 | 47.62265 | 9.08952 | 14697 ft | 330 kts | 209° |
| 2026-05-05 19:56 | 47.60344 | 9.07132 | 14445 ft | 326 kts | 222° |
| 2026-05-05 19:56 | 47.58884 | 9.04600 | 14202 ft | 323 kts | 240° |
| 2026-05-05 19:57 | 47.58060 | 9.01562 | 13973 ft | 322 kts | 257° |
| 2026-05-05 19:57 | 47.57881 | 8.99381 | 13816 ft | 322 kts | 268° |
| 2026-05-05 19:57 | 47.58740 | 8.95183 | 13476 ft | 328 kts | 304° |
| 2026-05-05 19:57 | 47.60512 | 8.93016 | 13203 ft | 338 kts | 332° |
| 2026-05-05 19:58 | 47.62828 | 8.92312 | 12938 ft | 348 kts | 360° |
| 2026-05-05 19:58 | 47.65155 | 8.93271 | 12675 ft | 350 kts | 28° |
| 2026-05-05 19:58 | 47.66918 | 8.95669 | 12409 ft | 344 kts | 57° |
| 2026-05-05 19:58 | 47.67861 | 8.98836 | 12159 ft | 335 kts | 72° |
| 2026-05-05 19:59 | 47.68540 | 9.02102 | 11945 ft | 326 kts | 76° |
| 2026-05-05 19:59 | 47.68926 | 9.05386 | 11887 ft | 318 kts | 90° |
| 2026-05-05 19:59 | 47.68864 | 9.08664 | 11900 ft | 316 kts | 96° |
| 2026-05-05 19:59 | 47.68655 | 9.11875 | 11779 ft | 316 kts | 102° |
| 2026-05-05 20:00 | 47.67898 | 9.14886 | 11527 ft | 304 kts | 128° |
| 2026-05-05 20:00 | 47.66442 | 9.17013 | 11274 ft | 294 kts | 153° |
| 2026-05-05 20:00 | 47.64559 | 9.17970 | 10995 ft | 284 kts | 179° |
| 2026-05-05 20:00 | 47.62649 | 9.17592 | 10627 ft | 275 kts | 205° |
| 2026-05-05 20:01 | 47.61119 | 9.15983 | 10254 ft | 271 kts | 231° |
| 2026-05-05 20:01 | 47.60295 | 9.13505 | 9944 ft | 270 kts | 258° |
| 2026-05-05 20:01 | 47.60379 | 9.10709 | 9902 ft | 277 kts | 280° |
| 2026-05-05 20:01 | 47.60893 | 9.07941 | 9905 ft | 280 kts | 283° |
| 2026-05-05 20:02 | 47.61458 | 9.05177 | 9893 ft | 280 kts | 284° |
| 2026-05-05 20:02 | 47.62027 | 9.02442 | 9896 ft | 280 kts | 284° |
| 2026-05-05 20:02 | 47.62607 | 8.99665 | 9896 ft | 280 kts | 284° |
| 2026-05-05 20:02 | 47.63184 | 8.96919 | 9897 ft | 280 kts | 284° |
| 2026-05-05 20:03 | 47.63669 | 8.94167 | 9907 ft | 277 kts | 276° |
| 2026-05-05 20:03 | 47.63935 | 8.91344 | 9900 ft | 276 kts | 274° |
| 2026-05-05 20:03 | 47.64174 | 8.88497 | 9904 ft | 277 kts | 274° |
| 2026-05-05 20:03 | 47.64413 | 8.85663 | 9906 ft | 277 kts | 274° |
| 2026-05-05 20:04 | 47.64649 | 8.82836 | 9904 ft | 276 kts | 274° |
| 2026-05-05 20:04 | 47.64884 | 8.80016 | 9906 ft | 275 kts | 274° |
| 2026-05-05 20:04 | 47.65119 | 8.77192 | 9838 ft | 276 kts | 274° |
| 2026-05-05 20:04 | 47.65355 | 8.74374 | 9577 ft | 274 kts | 274° |
| 2026-05-05 20:05 | 47.65588 | 8.71589 | 9312 ft | 272 kts | 274° |
| 2026-05-05 20:05 | 47.65819 | 8.68816 | 9056 ft | 270 kts | 274° |
| 2026-05-05 20:05 | 47.65971 | 8.66996 | 8948 ft | 268 kts | 274° |
| 2026-05-05 20:05 | 47.66022 | 8.64263 | 8905 ft | 263 kts | 256° |
| 2026-05-05 20:06 | 47.65270 | 8.61832 | 8904 ft | 261 kts | 230° |
| 2026-05-05 20:06 | 47.63817 | 8.60257 | 8913 ft | 264 kts | 203° |
| 2026-05-05 20:06 | 47.61989 | 8.59907 | 8909 ft | 272 kts | 176° |
| 2026-05-05 20:06 | 47.60202 | 8.60901 | 8911 ft | 282 kts | 150° |
| 2026-05-05 20:07 | 47.58644 | 8.62705 | 8919 ft | 285 kts | 144° |
| 2026-05-05 20:07 | 47.57127 | 8.64610 | 8769 ft | 286 kts | 144° |
| 2026-05-05 20:07 | 47.55615 | 8.66521 | 8514 ft | 284 kts | 143° |
| 2026-05-05 20:07 | 47.54131 | 8.68393 | 8252 ft | 283 kts | 143° |
| 2026-05-05 20:08 | 47.52791 | 8.70542 | 8002 ft | 288 kts | 123° |
| 2026-05-05 20:08 | 47.52170 | 8.73370 | 7746 ft | 294 kts | 99° |
| 2026-05-05 20:08 | 47.52046 | 8.76404 | 7494 ft | 296 kts | 94° |
| 2026-05-05 20:08 | 47.51977 | 8.79450 | 7116 ft | 295 kts | 94° |
| 2026-05-05 20:09 | 47.51909 | 8.82487 | 6746 ft | 294 kts | 94° |
| 2026-05-05 20:09 | 47.51838 | 8.85499 | 6381 ft | 293 kts | 94° |
| 2026-05-05 20:09 | 47.51622 | 8.88469 | 6028 ft | 287 kts | 110° |
| 2026-05-05 20:09 | 47.50661 | 8.90900 | 5990 ft | 264 kts | 140° |
| 2026-05-05 20:10 | 47.49189 | 8.92212 | 5994 ft | 236 kts | 171° |
| 2026-05-05 20:10 | 47.47643 | 8.92481 | 6015 ft | 213 kts | 182° |
| 2026-05-05 20:10 | 47.46239 | 8.92545 | 5981 ft | 198 kts | 184° |
| 2026-05-05 20:10 | 47.44933 | 8.92186 | 5718 ft | 188 kts | 213° |
| 2026-05-05 20:11 | 47.43972 | 8.90976 | 5461 ft | 179 kts | 236° |
| 2026-05-05 20:11 | 47.43451 | 8.89297 | 5102 ft | 183 kts | 259° |
| 2026-05-05 20:11 | 47.43449 | 8.87453 | 5020 ft | 178 kts | 275° |
| 2026-05-05 20:11 | 47.43583 | 8.85640 | 5017 ft | 177 kts | 275° |
| 2026-05-05 20:12 | 47.43717 | 8.83830 | 5007 ft | 177 kts | 274° |
| 2026-05-05 20:12 | 47.43850 | 8.82026 | 4980 ft | 177 kts | 274° |
| 2026-05-05 20:12 | 47.43982 | 8.80224 | 4828 ft | 176 kts | 274° |
| 2026-05-05 20:12 | 47.44113 | 8.78438 | 4609 ft | 171 kts | 274° |
| 2026-05-05 20:13 | 47.44236 | 8.76758 | 4372 ft | 160 kts | 274° |
| 2026-05-05 20:13 | 47.44354 | 8.75145 | 4135 ft | 157 kts | 274° |
| 2026-05-05 20:13 | 47.44471 | 8.73542 | 3905 ft | 155 kts | 274° |
| 2026-05-05 20:13 | 47.44585 | 8.71973 | 3684 ft | 155 kts | 274° |
| 2026-05-05 20:14 | 47.44700 | 8.70377 | 3458 ft | 155 kts | 274° |
| 2026-05-05 20:14 | 47.44814 | 8.68809 | 3231 ft | 156 kts | 274° |
| 2026-05-05 20:14 | 47.44930 | 8.67211 | 2996 ft | 157 kts | 274° |
| 2026-05-05 20:14 | 47.45046 | 8.65596 | 2762 ft | 156 kts | 274° |
| 2026-05-05 20:15 | 47.45146 | 8.64219 | 2545 ft | 144 kts | 274° |
| 2026-05-05 20:15 | 47.45250 | 8.62766 | 2321 ft | 141 kts | 274° |
| 2026-05-05 20:15 | 47.45353 | 8.61332 | 2104 ft | 139 kts | 275° |
| 2026-05-05 20:15 | 47.45456 | 8.59910 | 1878 ft | 139 kts | 276° |
| 2026-05-05 20:16 | 47.45561 | 8.58493 | 1678 ft | 139 kts | 275° |
| 2026-05-05 20:16 | 47.45660 | 8.57078 | 1457 ft | 138 kts | 274° |
| 2026-05-05 20:16 | 47.45763 | 8.55721 | 1405 ft | 124 kts | 276° |
| 2026-05-05 20:16 | 47.45820 | 8.54755 | 1406 ft | 46 kts | 276° |
| 2026-05-05 20:17 | 47.45796 | 8.54395 | 1406 ft | 35 kts | 248° |
| 2026-05-05 20:17 | 47.45680 | 8.54202 | 1398 ft | 26 kts | 180° |
| 2026-05-05 20:17 | 47.45593 | 8.54366 | 1394 ft | 18 kts | 109° |
| 2026-05-05 20:17 | 47.45556 | 8.54549 | 1396 ft | 18 kts | 105° |
| 2026-05-05 20:18 | 47.45516 | 8.54720 | 1405 ft | 17 kts | 109° |
| 2026-05-05 20:18 | 47.45490 | 8.54829 | 1399 ft | 0 kts | 108° |
| 2026-05-05 20:18 | 47.45490 | 8.54830 | 1399 ft | 1 kts | 108° |
| 2026-05-05 20:19 | 47.45473 | 8.54901 | 1407 ft | 13 kts | 109° |
| 2026-05-05 20:19 | 47.45441 | 8.55036 | 1406 ft | 13 kts | 109° |
| 2026-05-05 20:19 | 47.45414 | 8.55153 | 1408 ft | 12 kts | 109° |
| 2026-05-05 20:19 | 47.45387 | 8.55264 | 1408 ft | 11 kts | 113° |
| 2026-05-05 20:20 | 47.45375 | 8.55296 | 1404 ft | 0 kts | 118° |
| 2026-05-05 20:21 | 47.45375 | 8.55298 | 1404 ft | 0 kts | 111° |
| 2026-05-05 20:21 | 47.45381 | 8.55333 | 1401 ft | 9 kts | 62° |
| 2026-05-05 20:21 | 47.45469 | 8.55414 | 1408 ft | 16 kts | 27° |
| 2026-05-05 20:21 | 47.45524 | 8.55502 | 1404 ft | 11 kts | 92° |
| 2026-05-05 20:22 | 47.45518 | 8.55610 | 1402 ft | 10 kts | 95° |
| 2026-05-05 20:22 | 47.45510 | 8.55710 | 1397 ft | 10 kts | 96° |
| 2026-05-05 20:22 | 47.45503 | 8.55807 | 1406 ft | 9 kts | 96° |
| 2026-05-05 20:22 | 47.45496 | 8.55899 | 1397 ft | 9 kts | 97° |
| 2026-05-05 20:23 | 47.45481 | 8.55957 | 1405 ft | 4 kts | 158° |
| 2026-05-05 20:23 | 47.45454 | 8.55952 | 1400 ft | 4 kts | 186° |
| 2026-05-05 20:23 | 47.45430 | 8.55949 | 1397 ft | 3 kts | 186° |
| 2026-05-05 20:23 | 47.45414 | 8.55947 | 1397 ft | 0 kts | 185° |
| 2026-05-05 20:24 | 47.45412 | 8.55946 | 1397 ft | 0 kts | 185° |